Time;durP1;ratioP1;P1;durP2;ratioP2;P2;SDS_P1;SDS_P2;PMS_P1;PMS_P2;Temp;Humidity;BMP_temperature;BMP_pressure;BME280_temperature;BME280_humidity;BME280_pressure;Samples;Min_cycle;Max_cycle;Signal;HPM_P1;HPM_P2
2022/07/28 00:00:17;;;;;;;2.50;1.50;;;;;;;21.28;49.87;99130.28;238613;1192;139840;-60
2022/07/28 00:05:40;;;;;;;6.40;1.70;;;;;;;21.17;49.84;99131.42;238753;1192;138645;-60
2022/07/28 00:10:43;;;;;;;4.20;1.90;;;;;;;21.05;49.98;99135.23;238431;1192;138882;-58
2022/07/28 00:15:46;;;;;;;3.10;1.40;;;;;;;20.89;50.06;99136.02;238716;1192;139268;-59
2022/07/28 00:20:49;;;;;;;3.80;1.70;;;;;;;20.72;50.25;99133.08;238496;1192;139774;-60
2022/07/28 00:25:52;;;;;;;4.00;1.30;;;;;;;20.57;50.58;99138.49;238723;1191;138775;-59
2022/07/28 00:30:55;;;;;;;5.50;1.40;;;;;;;20.44;50.82;99141.81;238669;1191;140299;-60
2022/07/28 00:35:58;;;;;;;4.50;1.40;;;;;;;20.34;50.97;99146.91;238700;1192;138670;-59
2022/07/28 00:41:11;;;;;;;4.00;1.20;;;;;;;20.25;50.89;99146.42;238908;1190;139102;-58
2022/07/28 00:46:16;;;;;;;6.70;1.40;;;;;;;20.18;50.86;99154.71;238670;1191;139312;-58
2022/07/28 00:51:22;;;;;;;4.60;1.10;;;;;;;20.08;50.72;99158.16;238625;1191;139427;-59
2022/07/28 00:56:25;;;;;;;4.90;1.30;;;;;;;20.02;50.86;99162.78;238705;1190;138531;-59
2022/07/28 01:01:28;;;;;;;5.00;1.10;;;;;;;20.00;51.08;99160.82;238536;1192;138929;-58
2022/07/28 01:07:01;;;;;;;2.90;1.30;;;;;;;19.99;51.21;99159.95;238791;1190;140387;-59
2022/07/28 01:12:22;;;;;;;5.40;1.50;;;;;;;19.97;51.24;99144.38;238773;1190;139178;-59
2022/07/28 01:17:31;;;;;;;3.20;1.50;;;;;;;19.95;51.19;99150.52;238754;1191;139109;-59
2022/07/28 01:22:58;;;;;;;3.90;1.60;;;;;;;19.92;51.30;99153.02;238620;1190;138861;-59
2022/07/28 01:28:24;;;;;;;;;;;;;;;19.91;51.43;99157.42;238389;1192;139312;-59
2022/07/28 01:33:34;;;;;;;5.90;1.50;;;;;;;19.81;51.32;99165.04;238452;1192;125608;-59
2022/07/28 01:38:38;;;;;;;3.60;1.70;;;;;;;19.75;51.53;99171.24;238405;1191;139197;-59
2022/07/28 01:43:45;;;;;;;7.30;1.20;;;;;;;19.70;51.52;99170.10;238495;1192;138973;-60
2022/07/28 01:48:49;;;;;;;7.50;1.70;;;;;;;19.71;51.74;99170.92;238661;1190;138663;-60
2022/07/28 01:53:56;;;;;;;6.30;1.40;;;;;;;19.76;51.91;99168.08;238773;1192;138848;-58
2022/07/28 01:59:04;;;;;;;8.70;1.70;;;;;;;19.82;51.98;99164.06;238654;1192;139223;-60
2022/07/28 02:04:09;;;;;;;4.90;1.80;;;;;;;19.86;51.82;99165.06;238771;1190;138826;-60
2022/07/28 02:09:13;;;;;;;3.60;1.70;;;;;;;19.90;51.83;99155.65;238476;1192;138962;-60
2022/07/28 02:14:22;;;;;;;7.20;1.50;;;;;;;19.97;51.82;99164.89;238742;1190;140810;-59
2022/07/28 02:19:26;;;;;;;5.50;1.70;;;;;;;20.00;51.76;99174.13;238791;1190;139081;-60
2022/07/28 02:24:31;;;;;;;3.60;1.50;;;;;;;20.01;51.60;99176.21;238839;1190;139019;-60
2022/07/28 02:29:40;;;;;;;3.30;1.40;;;;;;;20.01;51.71;99180.02;238977;1190;139054;-60
2022/07/28 02:34:57;;;;;;;6.30;1.70;;;;;;;19.99;51.64;99189.36;238648;1191;138985;-59
2022/07/28 02:40:02;;;;;;;6.50;1.60;;;;;;;20.02;51.77;99189.79;238571;1192;139054;-58
2022/07/28 02:45:08;;;;;;;3.90;1.50;;;;;;;20.03;51.69;99191.15;238467;1192;139778;-58
2022/07/28 02:50:14;;;;;;;5.60;1.60;;;;;;;20.03;51.61;99195.81;238425;1192;138895;-59
2022/07/28 02:55:17;;;;;;;5.00;1.40;;;;;;;20.03;51.66;99194.93;238477;1192;139183;-59
2022/07/28 03:00:21;;;;;;;3.70;1.40;;;;;;;20.01;51.66;99198.00;238693;1192;139343;-57
2022/07/28 03:05:24;;;;;;;2.80;1.50;;;;;;;19.98;51.75;99207.48;238737;1192;139149;-57
2022/07/28 03:10:27;;;;;;;5.00;1.50;;;;;;;19.96;51.71;99212.02;238578;1192;140292;-56
2022/07/28 03:15:38;;;;;;;6.40;1.80;;;;;;;19.93;51.65;99222.35;238629;1191;139274;-58
2022/07/28 03:20:41;;;;;;;6.10;1.80;;;;;;;19.88;51.57;99232.58;238775;1190;139317;-57
2022/07/28 03:25:50;;;;;;;5.10;1.70;;;;;;;19.82;51.43;99237.65;238817;1190;138813;-58
2022/07/28 03:30:59;;;;;;;7.90;2.00;;;;;;;19.78;51.45;99235.13;238777;1190;139090;-57
2022/07/28 03:36:08;;;;;;;6.80;1.60;;;;;;;19.74;51.52;99236.42;238486;1191;139245;-58
2022/07/28 03:41:13;;;;;;;6.30;2.00;;;;;;;19.70;51.52;99239.02;238739;1192;139857;-57
2022/07/28 03:46:17;;;;;;;6.00;2.00;;;;;;;19.73;51.78;99236.92;238595;1190;139277;-58
2022/07/28 03:51:20;;;;;;;8.70;2.00;;;;;;;19.74;51.93;99240.61;238833;1190;139172;-57
2022/07/28 03:56:23;;;;;;;4.10;1.70;;;;;;;19.75;51.93;99246.09;238809;1190;139844;-58
2022/07/28 04:01:25;;;;;;;4.50;2.00;;;;;;;19.76;51.95;99257.00;238879;1190;139093;-57
2022/07/28 04:06:29;;;;;;;5.90;2.00;;;;;;;19.75;51.81;99255.10;238820;1190;139688;-57
2022/07/28 04:11:31;;;;;;;8.90;2.20;;;;;;;19.75;51.93;99258.11;238913;1190;138810;-57
2022/07/28 04:16:34;;;;;;;4.10;1.70;;;;;;;19.75;51.94;99264.08;238756;1191;138984;-57
2022/07/28 04:21:37;;;;;;;7.10;1.90;;;;;;;19.71;51.73;99267.23;238778;1190;139435;-57
2022/07/28 04:26:40;;;;;;;4.80;2.00;;;;;;;19.68;51.74;99267.63;238806;1190;140713;-57
2022/07/28 04:31:45;;;;;;;6.30;2.20;;;;;;;19.69;51.85;99265.92;238736;1191;139978;-60
2022/07/28 04:36:50;;;;;;;7.00;1.90;;;;;;;19.71;52.04;99265.96;238815;1190;139006;-60
2022/07/28 04:41:53;;;;;;;9.10;1.80;;;;;;;19.72;52.06;99266.05;238960;1190;138939;-59
2022/07/28 04:46:56;;;;;;;4.50;1.90;;;;;;;19.70;52.05;99264.23;238634;1190;138844;-59
2022/07/28 04:52:00;;;;;;;7.40;2.00;;;;;;;19.73;52.18;99269.75;238657;1192;140300;-60
2022/07/28 04:57:03;;;;;;;6.60;1.90;;;;;;;19.76;52.17;99269.02;238743;1190;139538;-59
2022/07/28 05:02:12;;;;;;;4.90;2.00;;;;;;;19.79;52.06;99269.50;238804;1191;141324;-59
2022/07/28 05:07:14;;;;;;;13.10;2.30;;;;;;;19.74;52.00;99278.61;238675;1191;139524;-60
2022/07/28 05:12:17;;;;;;;6.20;2.00;;;;;;;19.68;52.12;99280.66;238711;1190;139240;-59
2022/07/28 05:17:20;;;;;;;9.60;2.20;;;;;;;19.63;52.30;99289.05;238930;1190;139266;-59
2022/07/28 05:22:23;;;;;;;6.30;1.80;;;;;;;19.58;52.41;99298.08;238633;1190;138918;-60
2022/07/28 05:27:26;;;;;;;5.40;1.90;;;;;;;19.56;52.46;99304.17;238303;1190;140556;-58
2022/07/28 05:32:29;;;;;;;4.90;2.30;;;;;;;19.57;52.71;99304.27;238134;1191;139572;-60
2022/07/28 05:37:33;;;;;;;6.30;1.90;;;;;;;19.61;52.78;99303.77;238530;1190;138989;-60
2022/07/28 05:42:36;;;;;;;4.50;2.00;;;;;;;19.67;52.73;99316.50;238793;1190;139264;-60
2022/07/28 05:47:42;;;;;;;8.40;1.90;;;;;;;19.70;52.85;99323.98;238788;1191;138992;-60
2022/07/28 05:52:46;;;;;;;5.10;1.60;;;;;;;19.71;52.84;99321.04;238700;1190;139248;-60
2022/07/28 05:57:49;;;;;;;5.80;2.10;;;;;;;19.75;52.93;99327.83;238761;1190;138898;-60
2022/07/28 06:02:52;;;;;;;7.80;2.10;;;;;;;19.82;53.09;99323.77;238889;1190;139424;-58
2022/07/28 06:07:56;;;;;;;5.50;1.90;;;;;;;19.88;53.03;99323.89;238796;1190;139658;-60
2022/07/28 06:13:01;;;;;;;11.80;2.00;;;;;;;19.99;52.97;99325.70;238717;1190;139730;-59
2022/07/28 06:18:04;;;;;;;5.70;1.90;;;;;;;20.12;52.88;99327.92;238613;1190;139726;-60
2022/07/28 06:23:08;;;;;;;5.10;2.00;;;;;;;20.20;52.66;99331.63;238732;1191;139240;-59
2022/07/28 06:28:10;;;;;;;3.40;1.60;;;;;;;20.22;52.49;99333.78;238597;1190;139531;-59
2022/07/28 06:33:14;;;;;;;7.20;1.80;;;;;;;20.25;52.43;99335.76;238792;1190;139286;-58
2022/07/28 06:38:19;;;;;;;6.70;2.10;;;;;;;20.31;52.56;99332.11;238513;1190;140466;-60
2022/07/28 06:43:22;;;;;;;4.50;1.80;;;;;;;20.41;52.41;99326.13;238792;1191;139464;-57
2022/07/28 06:48:25;;;;;;;5.80;1.90;;;;;;;20.47;52.16;99325.02;238798;1190;139921;-58
2022/07/28 06:53:31;;;;;;;5.90;1.80;;;;;;;20.57;52.12;99326.23;238858;1191;139621;-60
2022/07/28 06:58:36;;;;;;;4.30;1.70;;;;;;;20.67;52.12;99330.85;238816;1190;139201;-59
2022/07/28 07:03:39;;;;;;;15.70;2.30;;;;;;;20.75;52.00;99335.36;238734;1190;139983;-60
2022/07/28 07:08:43;;;;;;;17.10;2.50;;;;;;;20.89;51.87;99339.03;238836;1191;139308;-58
2022/07/28 07:13:45;;;;;;;6.90;2.00;;;;;;;21.08;51.83;99334.95;238757;1191;141345;-60
2022/07/28 07:18:51;;;;;;;8.20;1.80;;;;;;;21.27;51.65;99333.05;238780;1190;138880;-60
2022/07/28 07:23:54;;;;;;;6.20;1.60;;;;;;;21.40;51.08;99330.25;238909;1191;138947;-60
2022/07/28 07:28:57;;;;;;;3.90;1.90;;;;;;;21.56;51.11;99326.54;238812;1192;139219;-60
2022/07/28 07:34:01;;;;;;;1.70;1.30;;;;;;;21.71;51.53;99328.77;238584;1192;140700;-60
2022/07/28 07:39:04;;;;;;;4.00;1.50;;;;;;;22.12;53.71;99325.35;238754;1190;139459;-57
2022/07/28 07:44:08;;;;;;;4.30;1.70;;;;;;;22.52;53.51;99318.36;238804;1190;138875;-57
2022/07/28 07:49:11;;;;;;;3.20;1.50;;;;;;;22.69;52.24;99320.51;238792;1190;139611;-59
2022/07/28 07:54:14;;;;;;;10.60;2.00;;;;;;;22.82;51.98;99314.80;238616;1191;139757;-60
2022/07/28 07:59:18;;;;;;;5.50;1.60;;;;;;;22.88;51.51;99316.47;238834;1190;139791;-58
2022/07/28 08:04:21;;;;;;;6.10;1.70;;;;;;;22.97;51.12;99316.86;238767;1191;139937;-58
2022/07/28 08:09:27;;;;;;;3.80;1.50;;;;;;;23.04;50.94;99315.43;238760;1190;139415;-56
2022/07/28 08:14:29;;;;;;;4.30;2.00;;;;;;;23.14;50.89;99313.44;238780;1190;139243;-59
2022/07/28 08:19:32;;;;;;;3.80;1.60;;;;;;;23.26;50.50;99311.98;238717;1192;138513;-58
2022/07/28 08:24:35;;;;;;;8.40;1.70;;;;;;;23.22;49.51;99318.64;238809;1191;139143;-59
2022/07/28 08:29:38;;;;;;;9.70;2.00;;;;;;;23.10;48.69;99315.73;238936;1190;140465;-58
2022/07/28 08:34:41;;;;;;;11.40;1.90;;;;;;;23.02;48.73;99312.48;238649;1192;138891;-59
2022/07/28 08:39:44;;;;;;;4.50;2.10;;;;;;;23.06;48.80;99310.18;238693;1192;139019;-59
2022/07/28 08:45:00;;;;;;;4.30;1.60;;;;;;;23.16;48.67;99311.14;238699;1190;138932;-59
2022/07/28 08:50:05;;;;;;;5.10;1.60;;;;;;;23.24;48.47;99309.85;238457;1192;139168;-60
2022/07/28 08:55:08;;;;;;;4.80;1.60;;;;;;;23.29;48.11;99310.86;238759;1192;139376;-60
2022/07/28 09:00:11;;;;;;;3.80;1.30;;;;;;;23.34;47.92;99303.80;238730;1190;139538;-59
2022/07/28 09:05:14;;;;;;;5.80;1.90;;;;;;;23.40;47.98;99304.20;239015;1191;140823;-59
2022/07/28 09:10:18;;;;;;;3.90;1.40;;;;;;;23.49;47.90;99303.59;238738;1191;139878;-57
2022/07/28 09:15:21;;;;;;;3.00;1.60;;;;;;;23.62;47.61;99301.29;238825;1191;138750;-58
2022/07/28 09:20:26;;;;;;;4.10;1.90;;;;;;;23.72;47.33;99295.15;238839;1191;139463;-58
2022/07/28 09:25:30;;;;;;;3.60;1.90;;;;;;;23.79;47.27;99295.67;238832;1190;139903;-58
2022/07/28 09:30:35;;;;;;;3.50;1.70;;;;;;;23.89;46.96;99293.73;238727;1190;139704;-58
2022/07/28 09:35:48;;;;;;;3.80;1.70;;;;;;;23.97;46.74;99299.10;238374;1192;139286;-60
2022/07/28 09:41:08;;;;;;;7.50;1.80;;;;;;;24.14;46.45;99295.61;238651;1192;139423;-57
2022/07/28 09:46:13;;;;;;;5.50;1.70;;;;;;;24.27;46.08;99295.39;237965;1192;139548;-58
2022/07/28 09:51:23;;;;;;;4.70;1.80;;;;;;;24.39;46.00;99293.86;238559;1192;139405;-59
2022/07/28 09:56:30;;;;;;;9.00;1.70;;;;;;;24.52;46.04;99292.34;238833;1190;141115;-57
2022/07/28 10:01:48;;;;;;;6.80;1.80;;;;;;;24.62;45.78;99289.62;238831;1190;138975;-59
2022/07/28 10:06:59;;;;;;;8.50;1.90;;;;;;;24.73;45.54;99293.57;238831;1190;139067;-57
2022/07/28 10:12:18;;;;;;;4.50;1.40;;;;;;;24.84;45.50;99290.74;238639;1191;140442;-58
2022/07/28 10:17:30;;;;;;;4.70;1.80;;;;;;;24.99;45.43;99291.11;238660;1191;138890;-59
2022/07/28 10:22:36;;;;;;;4.40;1.70;;;;;;;25.24;45.46;99295.23;238656;1192;141806;-59
2022/07/28 10:27:47;;;;;;;4.80;1.90;;;;;;;25.47;44.91;99287.64;238795;1190;139454;-59
2022/07/28 10:32:54;;;;;;;7.20;1.70;;;;;;;25.68;44.98;99283.41;238601;1192;139656;-59
2022/07/28 10:38:01;;;;;;;3.40;1.40;;;;;;;25.94;44.77;99282.09;238799;1190;139278;-60
2022/07/28 10:43:05;;;;;;;6.60;1.70;;;;;;;26.04;44.33;99280.31;238726;1190;138758;-59
2022/07/28 10:48:08;;;;;;;4.60;1.40;;;;;;;25.94;43.98;99277.56;238753;1190;139613;-59
2022/07/28 10:53:23;;;;;;;6.30;1.50;;;;;;;26.04;44.25;99278.38;238867;1190;140253;-59
2022/07/28 10:58:54;;;;;;;4.20;1.70;;;;;;;26.09;43.89;99275.34;238747;1190;139391;-58
2022/07/28 11:03:57;;;;;;;3.70;1.30;;;;;;;26.14;43.88;99274.53;238597;1190;140428;-59
2022/07/28 11:09:15;;;;;;;5.40;1.90;;;;;;;26.36;43.73;99264.88;238635;1192;140120;-58
2022/07/28 11:14:34;;;;;;;3.20;1.60;;;;;;;26.66;43.62;99260.04;238556;1190;140012;-59
2022/07/28 11:19:44;;;;;;;4.40;1.70;;;;;;;26.99;43.33;99256.00;238741;1190;139029;-59
2022/07/28 11:25:11;;;;;;;5.60;1.70;;;;;;;27.24;42.76;99253.52;238484;1192;139422;-59
2022/07/28 11:30:34;;;;;;;3.90;1.50;;;;;;;27.45;42.56;99247.80;238339;1192;139863;-59
2022/07/28 11:35:37;;;;;;;5.40;1.60;;;;;;;27.64;42.24;99244.02;238755;1192;139209;-59
2022/07/28 11:40:52;;;;;;;8.60;2.00;;;;;;;27.62;41.68;99244.67;238769;1190;140535;-59
2022/07/28 11:46:00;;;;;;;6.20;1.50;;;;;;;27.65;41.53;99241.98;238618;1191;138935;-58
2022/07/28 11:51:04;;;;;;;4.20;1.70;;;;;;;27.84;41.46;99238.95;238394;1191;139727;-60
2022/07/28 11:56:10;;;;;;;8.70;2.30;;;;;;;28.04;41.36;99238.77;238486;1192;140010;-60
2022/07/28 12:01:18;;;;;;;3.30;1.90;;;;;;;28.23;41.28;99228.70;238471;1192;139346;-59
2022/07/28 12:06:23;;;;;;;3.20;2.00;;;;;;;28.09;40.63;99225.98;238716;1191;139104;-59
2022/07/28 12:11:39;;;;;;;4.10;1.70;;;;;;;28.21;40.65;99223.44;238775;1192;139823;-59
2022/07/28 12:16:48;;;;;;;2.80;1.60;;;;;;;28.41;40.48;99223.52;238701;1191;138956;-59
2022/07/28 12:21:54;;;;;;;3.90;2.10;;;;;;;28.59;40.19;99216.05;238631;1190;140192;-60
2022/07/28 12:26:59;;;;;;;8.20;1.70;;;;;;;28.61;39.94;99215.33;238627;1190;139610;-59
2022/07/28 12:32:07;;;;;;;7.10;1.90;;;;;;;28.67;39.76;99213.83;238725;1190;139290;-58
2022/07/28 12:37:12;;;;;;;4.60;1.60;;;;;;;28.71;39.49;99212.57;238814;1190;139600;-58
2022/07/28 12:42:16;;;;;;;4.30;2.00;;;;;;;28.90;39.61;99211.54;238683;1191;140209;-60
2022/07/28 12:47:26;;;;;;;4.30;1.70;;;;;;;29.27;39.60;99204.58;238692;1192;139467;-59
2022/07/28 12:52:29;;;;;;;6.60;2.30;;;;;;;29.45;39.44;99202.02;238701;1190;139339;-58
2022/07/28 12:57:46;;;;;;;5.40;1.60;;;;;;;29.59;39.00;99206.36;238804;1190;139908;-60
2022/07/28 13:02:55;;;;;;;6.10;1.80;;;;;;;29.26;38.37;99199.77;238584;1192;139712;-61
2022/07/28 13:08:05;;;;;;;5.30;1.60;;;;;;;28.71;38.26;99199.50;238427;1192;138826;-60
2022/07/28 13:13:08;;;;;;;3.70;1.50;;;;;;;28.20;38.24;99189.07;237832;1190;139229;-58
2022/07/28 13:18:11;;;;;;;6.30;1.90;;;;;;;27.80;38.71;99192.17;238129;1192;139396;-58
2022/07/28 13:23:14;;;;;;;5.80;1.80;;;;;;;27.68;39.40;99200.16;238835;1190;139170;-59
2022/07/28 13:28:24;;;;;;;5.80;2.30;;;;;;;27.95;39.61;99195.33;238608;1191;139050;-59
2022/07/28 13:33:28;;;;;;;5.00;2.10;;;;;;;28.09;39.54;99190.34;238814;1190;138983;-59
2022/07/28 13:38:32;;;;;;;2.90;1.60;;;;;;;28.17;39.38;99182.18;238988;1190;139342;-58
2022/07/28 13:43:35;;;;;;;4.30;1.70;;;;;;;28.37;39.17;99183.23;238815;1190;139347;-58
2022/07/28 13:48:40;;;;;;;4.90;1.70;;;;;;;28.85;38.86;99186.75;238483;1192;139851;-58
2022/07/28 13:54:02;;;;;;;4.20;1.90;;;;;;;29.14;38.03;99188.46;238500;1192;139718;-59
2022/07/28 13:59:05;;;;;;;3.50;1.80;;;;;;;29.35;38.17;99183.05;238908;1190;139877;-58
2022/07/28 14:04:10;;;;;;;7.10;2.30;;;;;;;29.61;38.16;99181.34;238475;1192;139096;-60
2022/07/28 14:09:19;;;;;;;6.70;2.10;;;;;;;29.57;37.58;99178.23;238729;1190;139123;-59
2022/07/28 14:14:23;;;;;;;6.40;2.10;;;;;;;29.11;37.35;99184.41;238644;1190;139573;-59
2022/07/28 14:19:27;;;;;;;4.10;1.90;;;;;;;28.63;37.59;99183.89;238652;1190;139682;-58
2022/07/28 14:24:41;;;;;;;8.70;2.00;;;;;;;28.25;37.89;99179.61;238636;1190;139506;-59
2022/07/28 14:29:44;;;;;;;8.30;2.20;;;;;;;28.06;38.35;99170.37;238660;1190;138913;-57
2022/07/28 14:34:47;;;;;;;3.20;1.60;;;;;;;28.15;38.48;99168.04;237774;1192;139184;-59
2022/07/28 14:39:50;;;;;;;7.30;1.80;;;;;;;28.26;38.29;99164.33;238700;1190;139118;-59
2022/07/28 14:44:53;;;;;;;3.90;1.60;;;;;;;28.48;38.03;99165.20;238558;1192;139205;-59
2022/07/28 14:49:56;;;;;;;3.50;1.80;;;;;;;28.52;37.82;99161.01;238650;1190;139405;-59
2022/07/28 14:55:00;;;;;;;10.80;1.90;;;;;;;28.46;37.80;99158.80;238695;1191;139218;-59
2022/07/28 15:00:08;;;;;;;7.30;1.90;;;;;;;28.34;38.00;99159.14;238593;1190;139907;-58
2022/07/28 15:05:11;;;;;;;4.70;2.20;;;;;;;28.12;37.85;99152.58;238889;1190;140398;-57
2022/07/28 15:10:14;;;;;;;7.10;1.70;;;;;;;27.88;37.74;99146.64;238708;1190;139616;-59
2022/07/28 15:15:17;;;;;;;3.60;2.10;;;;;;;27.69;37.93;99141.55;238774;1190;139445;-60
2022/07/28 15:20:20;;;;;;;3.20;2.00;;;;;;;27.55;37.90;99144.27;238495;1192;138888;-60
2022/07/28 15:25:23;;;;;;;2.90;2.00;;;;;;;27.43;38.09;99137.13;238511;1192;139344;-58
2022/07/28 15:30:27;;;;;;;2.90;1.90;;;;;;;27.29;38.20;99136.89;238669;1191;139792;-60
2022/07/28 15:35:30;;;;;;;3.20;2.00;;;;;;;27.17;38.19;99134.66;238880;1190;139339;-58
2022/07/28 15:40:53;;;;;;;3.30;2.10;;;;;;;27.07;38.29;99135.22;238717;1190;139339;-58
2022/07/28 15:45:56;;;;;;;3.40;2.00;;;;;;;26.96;38.20;99131.65;238761;1190;139099;-59
2022/07/28 15:50:59;;;;;;;4.20;1.80;;;;;;;26.91;38.46;99133.13;238591;1191;139517;-60
2022/07/28 15:56:03;;;;;;;3.00;2.20;;;;;;;26.86;38.61;99132.76;238477;1192;139244;-60
2022/07/28 16:01:10;;;;;;;4.60;1.80;;;;;;;26.84;38.90;99131.41;238746;1190;139099;-60
2022/07/28 16:06:22;;;;;;;7.10;1.70;;;;;;;26.77;38.85;99132.52;238620;1190;140225;-59
2022/07/28 16:11:25;;;;;;;7.30;2.10;;;;;;;26.69;38.86;99135.17;238693;1190;139259;-59
2022/07/28 16:16:28;;;;;;;5.60;2.10;;;;;;;26.65;38.91;99133.53;238629;1190;139716;-59
2022/07/28 16:21:31;;;;;;;2.90;1.80;;;;;;;26.61;38.96;99132.41;238625;1190;139722;-58
2022/07/28 16:26:34;;;;;;;6.50;2.60;;;;;;;26.58;39.16;99131.45;238748;1190;139406;-58
2022/07/28 16:31:37;;;;;;;4.10;2.40;;;;;;;26.52;38.96;99131.94;238590;1191;140092;-59
2022/07/28 16:36:46;;;;;;;6.20;2.60;;;;;;;26.44;39.04;99134.84;238530;1190;139759;-58
2022/07/28 16:41:51;;;;;;;4.70;2.00;;;;;;;26.35;39.02;99133.77;238754;1190;139359;-58
2022/07/28 16:46:55;;;;;;;4.00;2.00;;;;;;;26.30;39.26;99132.80;238448;1191;139701;-59
2022/07/28 16:51:58;;;;;;;6.90;2.00;;;;;;;26.26;39.20;99133.55;238527;1190;139991;-59
2022/07/28 16:57:03;;;;;;;4.60;1.60;;;;;;;26.22;39.26;99136.20;238597;1191;140165;-59
2022/07/28 17:02:09;;;;;;;4.90;1.80;;;;;;;26.16;39.30;99141.09;238616;1190;138908;-58
2022/07/28 17:07:13;;;;;;;4.90;1.90;;;;;;;26.10;39.25;99141.39;238611;1190;139700;-59
2022/07/28 17:12:16;;;;;;;4.90;2.10;;;;;;;26.04;39.29;99143.59;238319;1192;139714;-58
2022/07/28 17:17:19;;;;;;;8.00;2.60;;;;;;;25.96;39.60;99144.37;238491;1191;139014;-59
2022/07/28 17:22:22;;;;;;;6.50;1.90;;;;;;;25.90;39.76;99146.73;238399;1192;139387;-59
2022/07/28 17:27:25;;;;;;;4.40;2.20;;;;;;;25.85;39.42;99152.17;238767;1190;139016;-57
2022/07/28 17:32:40;;;;;;;8.60;3.20;;;;;;;25.78;39.53;99151.48;238614;1191;139116;-60
2022/07/28 17:37:43;;;;;;;5.50;2.30;;;;;;;25.72;39.80;99150.75;238542;1191;140143;-59
2022/07/28 17:42:51;;;;;;;4.00;2.40;;;;;;;25.71;39.97;99152.38;238643;1191;139609;-58
2022/07/28 17:47:54;;;;;;;5.10;2.70;;;;;;;25.64;40.16;99161.77;238674;1192;139550;-60
2022/07/28 17:52:57;;;;;;;12.30;3.40;;;;;;;25.59;40.10;99167.65;238627;1190;138729;-59
2022/07/28 17:58:42;;;;;;;4.90;2.70;;;;;;;25.55;40.40;99170.58;238448;1192;139458;-59
2022/07/28 18:03:45;;;;;;;6.70;2.30;;;;;;;25.51;40.63;99179.41;238634;1190;139996;-60
2022/07/28 18:09:05;;;;;;;7.60;3.50;;;;;;;25.45;40.67;99183.73;238619;1190;139328;-60
2022/07/28 18:14:10;;;;;;;10.10;3.30;;;;;;;25.40;40.69;99184.52;238373;1192;139226;-58
2022/07/28 18:19:12;;;;;;;11.60;3.80;;;;;;;25.35;40.66;99182.61;238472;1191;139835;-59
2022/07/28 18:24:16;;;;;;;12.30;3.40;;;;;;;25.29;40.76;99178.75;238726;1190;140048;-60
2022/07/28 18:29:21;;;;;;;13.00;3.50;;;;;;;25.24;40.67;99180.82;238834;1190;139213;-58
2022/07/28 18:34:24;;;;;;;10.30;3.50;;;;;;;25.19;40.92;99186.28;238456;1192;139240;-58
2022/07/28 18:39:27;;;;;;;13.90;3.90;;;;;;;25.11;40.76;99193.84;238410;1192;139770;-59
2022/07/28 18:44:29;;;;;;;8.40;4.10;;;;;;;24.97;41.04;99191.56;238493;1192;141042;-58
2022/07/28 18:49:32;;;;;;;15.70;5.80;;;;;;;24.88;41.25;99197.87;238625;1192;139291;-58
2022/07/28 18:54:39;;;;;;;20.20;5.40;;;;;;;24.83;41.48;99205.38;238607;1190;139398;-59
2022/07/28 18:59:42;;;;;;;13.60;4.50;;;;;;;24.76;41.70;99205.59;238872;1190;139958;-57
2022/07/28 19:04:51;;;;;;;25.70;4.40;;;;;;;24.69;41.99;99217.69;238480;1192;139724;-59
2022/07/28 19:09:54;;;;;;;6.80;3.10;;;;;;;24.62;42.10;99220.05;238251;1192;139715;-59
2022/07/28 19:14:57;;;;;;;7.10;3.10;;;;;;;24.53;42.30;99223.55;238585;1191;141862;-59
2022/07/28 19:20:00;;;;;;;7.10;2.90;;;;;;;24.47;42.37;99220.89;238691;1191;139807;-59
2022/07/28 19:25:04;;;;;;;6.10;2.50;;;;;;;24.41;42.38;99218.52;238135;1192;139516;-59
2022/07/28 19:30:08;;;;;;;11.00;2.50;;;;;;;24.32;42.47;99220.08;238274;1191;139464;-58
2022/07/28 19:35:12;;;;;;;6.40;2.70;;;;;;;24.22;42.59;99222.06;238729;1190;140265;-59
2022/07/28 19:40:15;;;;;;;9.90;3.30;;;;;;;24.07;42.68;99225.52;238719;1190;138709;-57
2022/07/28 19:45:18;;;;;;;7.90;2.80;;;;;;;23.92;42.88;99231.96;238803;1191;139148;-59
2022/07/28 19:50:21;;;;;;;4.20;2.30;;;;;;;23.77;42.98;99229.64;238741;1190;139282;-59
2022/07/28 19:55:29;;;;;;;8.70;2.50;;;;;;;23.64;43.17;99233.17;238711;1190;139224;-58
2022/07/28 20:00:33;;;;;;;6.70;3.00;;;;;;;23.51;43.31;99228.77;238775;1190;139036;-59
2022/07/28 20:05:37;;;;;;;5.70;2.80;;;;;;;23.39;43.68;99234.98;238820;1190;139416;-59
2022/07/28 20:10:41;;;;;;;7.10;2.80;;;;;;;23.27;43.87;99244.67;238536;1191;139247;-59
2022/07/28 20:15:44;;;;;;;6.70;3.00;;;;;;;23.17;44.17;99244.58;238671;1190;139298;-59
2022/07/28 20:20:47;;;;;;;5.40;3.00;;;;;;;23.06;44.45;99241.02;238842;1191;140575;-59
2022/07/28 20:25:50;;;;;;;7.30;3.30;;;;;;;22.95;44.77;99246.77;238743;1191;139484;-58
2022/07/28 20:30:53;;;;;;;7.20;3.20;;;;;;;22.85;45.21;99250.63;238691;1192;139062;-58
2022/07/28 20:35:56;;;;;;;7.90;3.10;;;;;;;22.75;45.42;99253.52;238886;1191;139236;-59
2022/07/28 20:40:59;;;;;;;8.30;3.00;;;;;;;22.65;45.57;99252.10;238433;1191;140471;-57
2022/07/28 20:46:08;;;;;;;8.30;3.10;;;;;;;22.57;45.85;99258.31;237996;1190;139117;-59
2022/07/28 20:51:11;;;;;;;7.20;3.00;;;;;;;22.50;46.14;99256.44;238659;1191;140012;-59
2022/07/28 20:56:14;;;;;;;7.10;3.20;;;;;;;22.39;46.40;99253.59;238831;1190;139502;-59
2022/07/28 21:01:21;;;;;;;7.70;3.30;;;;;;;22.31;46.52;99257.07;238810;1190;138968;-59
2022/07/28 21:06:26;;;;;;;5.90;3.10;;;;;;;22.22;46.65;99257.75;238692;1190;139643;-59
2022/07/28 21:11:30;;;;;;;8.40;3.30;;;;;;;22.16;46.80;99263.64;238907;1190;139761;-58
2022/07/28 21:16:37;;;;;;;8.80;3.40;;;;;;;22.10;46.86;99262.85;238578;1192;141980;-59
2022/07/28 21:21:40;;;;;;;5.90;3.00;;;;;;;22.03;47.17;99269.54;238798;1190;139288;-59
2022/07/28 21:26:44;;;;;;;8.00;2.90;;;;;;;21.94;47.18;99275.15;238691;1192;139305;-59
2022/07/28 21:31:50;;;;;;;6.90;3.30;;;;;;;21.88;47.42;99277.05;238649;1192;139123;-59
2022/07/28 21:37:07;;;;;;;8.40;3.40;;;;;;;21.82;47.78;99276.34;238461;1191;139374;-59
2022/07/28 21:42:12;;;;;;;8.20;3.90;;;;;;;21.75;47.89;99286.98;238408;1192;139643;-58
2022/07/28 21:47:14;;;;;;;5.70;3.30;;;;;;;21.69;47.93;99289.59;238770;1190;139693;-57
2022/07/28 21:52:18;;;;;;;5.40;3.40;;;;;;;21.63;48.24;99292.66;238854;1190;138714;-58
2022/07/28 21:57:21;;;;;;;7.20;3.30;;;;;;;21.59;48.19;99294.45;238702;1190;139416;-59
2022/07/28 22:02:27;;;;;;;8.20;3.10;;;;;;;21.50;48.34;99298.26;238756;1191;139381;-59
2022/07/28 22:07:30;;;;;;;7.60;3.40;;;;;;;21.43;48.29;99302.38;238827;1190;140134;-58
2022/07/28 22:12:33;;;;;;;6.30;2.90;;;;;;;21.36;48.43;99303.67;238841;1190;141164;-58
2022/07/28 22:17:37;;;;;;;7.00;3.10;;;;;;;21.29;48.53;99304.67;238854;1191;139558;-58
2022/07/28 22:22:39;;;;;;;9.60;3.30;;;;;;;21.24;48.56;99311.14;238748;1190;139018;-57
2022/07/28 22:27:42;;;;;;;5.30;3.00;;;;;;;21.19;48.63;99311.64;238804;1190;139594;-58
2022/07/28 22:32:45;;;;;;;4.40;2.60;;;;;;;21.14;48.81;99306.82;238760;1192;139702;-59
2022/07/28 22:37:49;;;;;;;5.20;2.90;;;;;;;21.07;48.86;99310.95;238693;1192;139188;-59
2022/07/28 22:42:52;;;;;;;8.70;3.10;;;;;;;20.99;48.85;99309.02;238508;1190;139089;-58
2022/07/28 22:47:55;;;;;;;4.60;2.80;;;;;;;20.93;48.96;99306.77;238809;1191;138787;-58
2022/07/28 22:52:58;;;;;;;9.80;3.10;;;;;;;20.85;49.02;99300.52;238752;1192;139122;-58
2022/07/28 22:58:01;;;;;;;5.50;2.70;;;;;;;20.79;49.05;99300.72;238689;1191;139092;-58
2022/07/28 23:03:07;;;;;;;8.60;3.40;;;;;;;20.72;49.24;99303.91;238559;1192;139755;-58
2022/07/28 23:08:15;;;;;;;5.80;2.70;;;;;;;20.67;49.31;99308.05;238366;1192;140013;-59
2022/07/28 23:13:18;;;;;;;7.00;2.70;;;;;;;20.66;49.27;99312.27;238342;1192;140175;-59
2022/07/28 23:18:21;;;;;;;4.20;2.70;;;;;;;20.73;49.07;99315.92;238319;1192;140644;-57
2022/07/28 23:23:24;;;;;;;4.10;2.50;;;;;;;20.79;49.01;99317.52;238959;1190;139559;-57